Latest Weather Observations for Scherger

IDQ60801

Issued at 11:35 pm EST Friday 29 August 2014 (issued every 30 minutes, with the page automatically refreshed every 10 minutes)

About weather observations | Map of weather stations | Latest weather observations for QLD | Other Formats
Station Details ID: 027075 Name: SCHERGER RAAF Lat: -12.62 Lon: 142.09 Height: 39.34 m
Data from the previous 72 hours. | See also: Recent months at Scherger
Date/Time
EST
Temp
°C
App
Temp
°C
Dew
Point
Rel
Hum
%
Delta-T
°C
Wind Press
QNH
hPa
Press
MSL
hPa
Rain
since 9 am
mm
Dir
 
Spd
km/h
Gust
km/h
Spd
kts
Gust
kts
29/11:30pm 22.2 22.6 15.3 65 4.1 ESE 7 13 4 7 1014.7 1014.5 0.0
29/11:00pm 22.3 22.3 15.2 64 4.2 ESE 9 13 5 7 1014.7 1014.5 0.0
29/10:30pm 22.5 22.8 14.9 62 4.5 ESE 7 15 4 8 1014.8 1014.6 0.0
29/10:00pm 22.8 22.6 14.6 60 4.8 E 9 17 5 9 1015.0 1014.8 0.0
29/09:30pm 22.9 22.3 14.5 59 5.0 E 11 17 6 9 1014.9 1014.7 0.0
29/09:00pm 23.4 22.2 14.1 56 5.5 E 13 22 7 12 1014.9 1014.7 0.0
29/08:30pm 24.0 22.5 14.1 54 5.8 E 15 26 8 14 1014.5 1014.3 0.0
29/08:00pm 24.6 23.1 14.1 52 6.2 E 15 32 8 17 1014.1 1013.9 0.0
29/07:30pm 25.2 23.9 13.7 49 6.8 E 13 24 7 13 1013.7 1013.5 0.0
29/07:00pm 25.8 24.4 13.3 46 7.3 E 13 24 7 13 1013.4 1013.2 0.0
29/06:30pm 26.5 25.1 13.3 44 7.8 E 13 17 7 9 1012.7 1012.5 0.0
29/06:00pm 27.2 25.6 12.8 41 8.4 ESE 13 22 7 12 1012.4 1012.2 0.0
29/05:30pm 28.0 26.4 12.8 39 8.9 ESE 13 20 7 11 1011.9 1011.7 0.0
29/05:00pm 29.3 26.9 12.7 36 9.8 E 17 26 9 14 1011.7 1011.5 0.0
29/04:30pm 30.4 27.5 12.3 33 10.6 E 19 30 10 16 1011.6 1011.4 0.0
29/04:00pm 30.7 28.0 13.0 33 10.5 E 19 30 10 16 1011.4 1011.2 0.0
29/03:30pm 30.5 28.6 12.9 34 10.5 E 15 24 8 13 1011.4 1011.2 0.0
29/03:00pm 30.3 27.3 11.8 32 10.8 ESE 19 26 10 14 1011.6 1011.4 0.0
29/02:30pm 30.5 27.7 11.5 31 11.0 ENE 17 30 9 16 1011.9 1011.7 0.0
29/02:00pm 31.6 28.7 12.4 31 11.4 SE 19 35 10 19 1012.2 1012.0 0.0
29/01:30pm 31.4 29.6 12.2 30 11.3 NE 13 20 7 11 1012.5 1012.3 0.0
29/01:00pm 30.6 28.7 13.0 34 10.5 ESE 15 26 8 14 1012.8 1012.6 0.0
29/12:30pm 30.5 28.4 13.7 35 10.1 ENE 17 26 9 14 1013.2 1013.0 0.0
29/12:00pm 29.0 26.4 13.2 37 9.4 E 19 32 10 17 1013.7 1013.5 0.0
29/11:30am 28.4 26.8 13.9 41 8.7 ESE 15 24 8 13 1014.3 1014.1 0.0
29/11:00am 28.2 26.0 14.4 42 8.3 E 19 32 10 17 1014.6 1014.4 0.0
29/10:30am 26.4 24.2 14.8 49 7.0 SE 20 26 11 14 1014.9 1014.7 0.0
29/10:00am 25.7 25.0 15.4 53 6.2 E 13 24 7 13 1015.1 1014.9 0.0
29/09:30am 24.5 23.2 15.7 58 5.3 E 17 32 9 17 1015.1 1014.9 0.0
29/09:00am 23.5 23.2 15.5 60 4.8 ESE 11 22 6 12 1015.0 1014.8 0.0
29/08:30am 22.3 22.7 16.3 69 3.6 ESE 9 15 5 8 1014.9 1014.7 0.0
29/08:00am 19.8 20.1 15.9 78 2.3 SSE 9 11 5 6 1014.8 1014.6 0.0
29/07:30am 17.8 19.5 15.2 85 1.5 CALM 0 0 0 0 1014.7 1014.5 0.0
29/07:00am 16.5 17.9 14.3 87 1.3 CALM 0 0 0 0 1014.2 1014.0 0.0
29/06:30am 16.7 16.7 14.3 86 1.4 S 7 9 4 5 1014.0 1013.8 0.0
29/06:00am 17.1 17.4 14.6 85 1.4 SSE 6 7 3 4 1013.8 1013.6 0.0
29/05:30am 17.3 17.8 14.9 86 1.4 SSE 6 9 3 5 1013.7 1013.5 0.0
29/05:00am 17.3 17.8 14.9 86 1.4 E 6 9 3 5 1013.7 1013.5 0.0
29/04:30am 17.5 18.0 15.0 85 1.5 SE 6 9 3 5 1013.7 1013.5 0.0
29/04:00am 17.6 17.9 15.0 85 1.5 ESE 7 9 4 5 1013.8 1013.6 0.0
29/03:30am 17.0 17.2 14.3 84 1.5 ESE 6 9 3 5 1013.7 1013.5 0.0
29/03:00am 17.2 17.4 14.3 83 1.7 E 6 9 3 5 1013.8 1013.6 0.0
29/02:30am 17.5 17.8 14.4 82 1.8 ESE 6 9 3 5 1014.0 1013.8 0.0
29/02:00am 17.8 18.0 14.1 79 2.1 SE 6 7 3 4 1014.1 1013.9 0.0
29/01:30am 18.6 19.2 14.3 76 2.5 E 4 7 2 4 1014.4 1014.2 0.0
29/01:00am 19.4 19.7 14.4 73 2.9 E 6 9 3 5 1014.5 1014.3 0.0
29/12:30am 19.8 20.1 14.6 72 3.0 ESE 6 11 3 6 1014.7 1014.5 0.0
29/12:00am 20.1 19.9 14.7 71 3.2 E 9 15 5 8 1014.8 1014.6 0.0
 
Date/Time
EST
Temp
°C
App
Temp
°C
Dew
Point
Rel
Hum
%
Delta-T
°C
Wind Press
QNH
hPa
Press
MSL
hPa
Rain
since 9 am
mm
Dir
 
Spd
km/h
Gust
km/h
Spd
kts
Gust
kts
28/11:30pm 20.1 20.1 14.2 69 3.4 E 7 11 4 6 1015.2 1015.0 0.0
28/11:00pm 20.7 20.7 14.1 66 3.8 E 7 11 4 6 1015.3 1015.1 0.0
28/10:30pm 21.2 21.3 13.9 63 4.2 E 6 13 3 7 1015.2 1015.0 0.0
28/10:00pm 21.8 20.9 13.7 60 4.7 ESE 11 17 6 9 1015.3 1015.1 0.0
28/09:30pm 22.5 21.0 13.0 55 5.5 E 13 19 7 10 1015.0 1014.8 0.0
28/09:00pm 23.0 22.1 12.6 52 5.9 E 9 17 5 9 1014.8 1014.6 0.0
28/08:30pm 23.7 22.0 12.4 49 6.5 E 13 22 7 12 1014.5 1014.3 0.0
28/08:00pm 24.7 22.7 11.6 44 7.4 E 13 22 7 12 1013.9 1013.7 0.0
28/07:30pm 25.5 23.6 10.5 39 8.4 E 11 19 6 10 1013.5 1013.3 0.0
28/07:00pm 26.3 24.3 10.0 36 9.1 E 11 19 6 10 1013.1 1012.9 0.0
28/06:30pm 27.3 24.8 9.6 33 9.8 E 13 28 7 15 1012.6 1012.4 0.0
28/06:00pm 28.4 26.0 10.1 32 10.3 E 13 19 7 10 1012.2 1012.0 0.0
28/05:30pm 29.6 26.3 9.7 29 11.2 E 17 32 9 17 1011.9 1011.7 0.0
28/05:00pm 30.7 28.3 10.1 28 11.7 E 13 22 7 12 1011.6 1011.4 0.0
28/04:30pm 31.3 27.8 8.9 25 12.5 E 17 28 9 15 1011.4 1011.2 0.0
28/04:00pm 32.3 29.0 7.9 22 13.5 E 15 20 8 11 1011.3 1011.1 0.0
28/03:30pm 32.7 29.1 6.8 20 14.1 E 15 20 8 11 1011.3 1011.1 0.0
28/03:00pm 32.8 30.3 8.3 22 13.7 E 11 22 6 12 1011.3 1011.1 0.0
28/02:30pm 32.7 29.6 8.9 23 13.4 E 15 22 8 12 1011.6 1011.4 0.0
28/02:00pm 32.5 30.1 9.9 25 12.9 ESE 13 20 7 11 1011.9 1011.7 0.0
28/01:30pm 31.3 28.1 10.1 27 12.1 ESE 17 30 9 16 1012.3 1012.1 0.0
28/01:00pm 31.8 29.7 11.0 28 12.1 E 13 22 7 12 1012.6 1012.4 0.0
28/12:30pm 31.0 29.1 11.9 31 11.2 SE 13 20 7 11 1013.0 1012.8 0.0
28/12:00pm 30.1 28.4 12.5 34 10.4 SE 13 20 7 11 1013.6 1013.4 0.0
28/11:30am 29.3 27.9 13.5 38 9.4 SE 13 28 7 15 1014.1 1013.9 0.0
28/11:00am 28.0 27.2 15.0 45 7.9 E 13 17 7 9 1014.6 1014.4 0.0
28/10:30am 26.8 24.9 14.2 46 7.5 ESE 17 26 9 14 1014.9 1014.7 0.0
28/10:00am 26.4 25.9 15.8 52 6.5 ESE 13 22 7 12 1015.0 1014.8 0.0
28/09:30am 25.0 24.5 17.0 61 5.0 SE 15 24 8 13 1015.1 1014.9 0.0
28/09:00am 22.8 23.9 17.0 70 3.6 SE 7 13 4 7 1015.3 1015.1 0.0
28/08:30am 21.0 20.8 16.8 77 2.6 SSE 13 17 7 9 1015.2 1015.0 0.0
28/08:00am 19.4 19.5 16.4 83 1.8 S 11 17 6 9 1015.1 1014.9 0.0
28/07:30am 18.1 17.7 16.1 88 1.2 S 13 20 7 11 1015.0 1014.8 0.0
28/07:00am 17.4 17.3 15.9 91 0.9 S 11 19 6 10 1014.8 1014.6 0.0
28/06:30am 17.2 17.1 15.9 92 0.8 S 11 15 6 8 1014.3 1014.1 0.0
28/06:00am 17.0 17.2 15.7 92 0.8 S 9 13 5 7 1014.0 1013.8 0.0
28/05:30am 16.6 17.1 15.5 93 0.6 S 7 9 4 5 1013.8 1013.6 0.0
28/05:00am 15.9 17.2 14.1 89 1.0 CALM 0 0 0 0 1013.6 1013.4 0.0
28/04:30am 16.0 17.3 14.2 89 1.0 CALM 0 0 0 0 1013.5 1013.3 0.0
28/04:00am 16.0 17.3 14.2 89 1.0 CALM 0 0 0 0 1013.3 1013.1 0.0
28/03:30am 16.5 17.9 14.5 88 1.1 CALM 0 0 0 0 1013.3 1013.1 0.0
28/03:00am 16.8 18.2 14.4 86 1.4 CALM 0 0 0 0 1013.5 1013.3 0.0
28/02:30am 16.9 18.3 14.4 85 1.4 CALM 0 0 0 0 1013.8 1013.6 0.0
28/02:00am 17.2 18.6 14.3 83 1.7 CALM 0 0 0 0 1013.9 1013.7 0.0
28/01:30am 17.9 19.5 15.0 83 1.7 CALM 0 0 0 0 1014.1 1013.9 0.0
28/01:00am 18.6 20.2 14.9 79 2.2 CALM 0 0 0 0 1014.6 1014.4 0.0
28/12:30am 19.6 21.6 15.9 79 2.2 CALM 0 6 0 3 1014.8 1014.6 0.0
28/12:00am 20.0 20.7 16.0 78 2.4 SE 7 9 4 5 1014.9 1014.7 0.0
 
Date/Time
EST
Temp
°C
App
Temp
°C
Dew
Point
Rel
Hum
%
Delta-T
°C
Wind Press
QNH
hPa
Press
MSL
hPa
Rain
since 9 am
mm
Dir
 
Spd
km/h
Gust
km/h
Spd
kts
Gust
kts
27/11:30pm 20.2 22.0 15.6 75 2.7 CALM 0 6 0 3 1015.1 1014.9 0.0
27/11:00pm 21.0 22.2 15.8 72 3.1 ESE 4 7 2 4 1015.1 1014.9 0.0
27/10:30pm 21.6 22.3 15.7 69 3.5 E 6 13 3 7 1015.0 1014.8 0.0
27/10:00pm 22.3 22.1 15.6 66 4.0 E 11 20 6 11 1014.8 1014.6 0.0
27/09:30pm 22.8 22.8 15.1 62 4.6 E 9 17 5 9 1014.6 1014.4 0.0
27/09:00pm 23.3 23.1 14.6 58 5.2 E 9 19 5 10 1014.1 1013.9 0.0
27/08:30pm 24.2 23.5 14.3 54 5.9 E 11 19 6 10 1013.6 1013.4 0.0
27/08:00pm 25.0 24.4 14.5 52 6.3 E 11 20 6 11 1013.1 1012.9 0.0
27/07:30pm 25.7 24.5 13.9 48 7.0 E 13 22 7 12 1012.7 1012.5 0.0
27/07:00pm 26.6 24.9 13.7 45 7.6 E 15 24 8 13 1012.1 1011.9 0.0
27/06:30pm 27.7 25.9 13.3 41 8.5 E 15 24 8 13 1011.5 1011.3 0.0
27/06:00pm 28.8 26.9 13.1 38 9.3 E 15 24 8 13 1011.0 1010.8 0.0
27/05:30pm 30.3 28.3 12.7 34 10.4 ENE 15 20 8 11 1010.7 1010.5 0.0
27/05:00pm 31.5 29.0 12.3 31 11.4 E 17 30 9 16 1010.5 1010.3 0.0
27/04:30pm 32.2 30.3 11.9 29 12.0 E 13 20 7 11 1010.4 1010.2 0.0
27/04:00pm 32.5 31.3 11.6 28 12.3 ENE 9 19 5 10 1010.1 1009.9 0.0
27/03:30pm 32.6 30.1 11.2 27 12.5 SSE 15 20 8 11 1010.0 1009.8 0.0
27/03:00pm 32.7 30.5 10.7 26 12.8 SE 13 20 7 11 1010.2 1010.0 0.0
27/02:30pm 33.3 31.2 11.2 26 12.9 E 13 22 7 12 1010.6 1010.4 0.0
27/02:00pm 32.9 30.0 10.9 26 12.8 NE 17 24 9 13 1011.0 1010.8 0.0
27/01:30pm 32.4 29.1 11.0 27 12.4 E 19 26 10 14 1011.4 1011.2 0.0
27/01:00pm 31.5 28.7 11.3 29 11.8 E 17 26 9 14 1012.0 1011.8 0.0
27/12:30pm 31.7 29.9 12.0 30 11.6 ESE 13 20 7 11 1012.5 1012.3 0.0
27/12:00pm 30.6 27.7 11.1 30 11.3 SE 17 26 9 14 1013.2 1013.0 0.0
27/11:30am 29.9 27.4 12.3 33 10.3 E 17 30 9 16 1013.7 1013.5 0.0
27/11:00am 28.9 27.8 14.3 40 8.8 ESE 13 24 7 13 1014.3 1014.1 0.0
27/10:30am 28.2 27.3 14.8 44 8.1 E 13 22 7 12 1014.7 1014.5 0.0
27/10:00am 26.4 25.9 15.8 52 6.5 ESE 13 20 7 11 1015.0 1014.8 0.0
27/09:30am 25.2 23.5 15.8 56 5.7 ESE 19 26 10 14 1015.0 1014.8 0.0
27/09:00am 24.3 24.3 17.3 65 4.3 ESE 13 24 7 13 1014.8 1014.6 0.0
27/08:30am 22.6 23.0 17.3 72 3.3 SE 11 17 6 9 1014.7 1014.5 0.0
27/08:00am 20.9 21.5 16.9 78 2.4 SSE 9 13 5 7 1014.5 1014.3 0.0
27/07:30am 19.0 20.0 16.4 85 1.6 SSE 6 9 3 5 1014.1 1013.9 0.0
27/07:00am 17.3 18.0 15.6 90 1.0 S 6 9 3 5 1013.9 1013.7 0.0
27/06:30am 17.0 17.5 15.0 88 1.2 S 6 7 3 4 1013.6 1013.4 0.0
27/06:00am 17.0 18.6 15.0 88 1.2 CALM 0 4 0 2 1013.3 1013.1 0.0
27/05:30am 17.3 19.0 15.1 87 1.3 CALM 0 0 0 0 1013.2 1013.0 0.0
27/05:00am 17.5 19.2 15.1 86 1.4 CALM 0 0 0 0 1013.1 1012.9 0.0
27/04:30am 17.7 19.3 15.0 84 1.6 CALM 0 0 0 0 1013.2 1013.0 0.0
27/04:00am 17.9 19.8 15.7 87 1.3 CALM 0 0 0 0 1013.2 1013.0 0.0
27/03:30am 18.0 19.8 15.4 85 1.5 CALM 0 0 0 0 1013.2 1013.0 0.0
27/03:00am 18.2 20.0 15.5 84 1.6 CALM 0 0 0 0 1013.3 1013.1 0.0
27/02:30am 18.4 20.1 15.3 82 1.8 CALM 0 0 0 0 1013.4 1013.2 0.0
27/02:00am 18.8 20.6 15.5 81 1.9 CALM 0 0 0 0 1013.7 1013.5 0.0
27/01:30am 19.2 21.2 15.9 81 2.0 CALM 0 0 0 0 1013.8 1013.6 0.0
27/01:00am 19.7 21.7 16.0 79 2.2 CALM 0 0 0 0 1013.9 1013.7 0.0
27/12:30am 19.9 21.8 15.7 77 2.5 CALM 0 0 0 0 1014.0 1013.8 0.0
27/12:00am 20.6 22.5 15.8 74 2.9 CALM 0 0 0 0 1014.3 1014.1 0.0

Other Formats:

Comma delimited format used in spreadsheet applications
http://www.bom.gov.au/fwo/IDQ60801/IDQ60801.94171.axf

JavaScript Object Notation format (JSON) in row-major order
http://www.bom.gov.au/fwo/IDQ60801/IDQ60801.94171.json